Happy Valentine's Day! 

Flight Track Log - Related Links

Times and Time Zones

All times are in EDT time to prevent confusion due to time zone crossing. See the N53442 flight status page for this flight to view local times or setup timezone preferences in your user account.


Time Position Orientation Groundspeed Altitude Reporting Facility
EDT Latitude Longitude Course Direction KTS MPH feet Rate Location/Type
Fri 01:32:12 PM 39.8570 -104.6800 216° Southwest 28 32  Level FlightAware ADS-B
Fri 01:36:04 PM 39.8520 -104.6910 269° West 17 20 792 Level FlightAware ADS-B
Fri 01:36:52 PM 39.8520 -104.6980 270° West 34 39 1,831 Level FlightAware ADS-B
Fri 01:38:41 PM 39.8650 -104.6960 North 145 167 2,512 Level FlightAware ADS-B
Fri 01:39:01 PM 39.8818 -104.6960 360° North 198 228 5,400 12,429 Climbing FlightAware ADS-B
Fri 01:39:09 PM 39.8891 -104.6960 360° North 196 226 5,800 2,667 Climbing FlightAware ADS-B
Fri 01:39:19 PM 39.8984 -104.6950 North 198 228 6,200 2,333 Climbing FlightAware ADS-B
Fri 01:39:27 PM 39.9061 -104.6950 360° North 204 235 6,500 1,636 Climbing FlightAware ADS-B
Fri 01:39:30 PM 39.9093 -104.6950 360° North 209 241 6,500 667 Level FlightAware ADS-B
Fri 01:39:36 PM 39.9148 -104.6960 352° North 216 249 6,600 1,200 Climbing FlightAware ADS-B
Fri 01:39:40 PM 39.9186 -104.6960 360° North 220 253 6,700 1,636 Climbing FlightAware ADS-B
Fri 01:39:47 PM 39.9263 -104.6980 349° North 224 258 6,900 1,043 Climbing FlightAware ADS-B
Fri 01:40:03 PM 39.9437 -104.7030 348° North 248 285 7,100 1,154 Climbing FlightAware ADS-B
Fri 01:40:13 PM 39.9540 -104.7060 347° North 251 289 7,400 2,222 Climbing FlightAware ADS-B
Fri 01:40:30 PM 39.9735 -104.7120 347° North 253 291 8,100 2,483 Climbing FlightAware ADS-B
Fri 01:40:42 PM 39.9873 -104.7160 347° North 253 291 8,600 1,909 Climbing FlightAware ADS-B
Fri 01:40:52 PM 39.9985 -104.7200 345° North 260 299 8,800 1,200 Climbing FlightAware ADS-B
Fri 01:41:07 PM 40.0163 -104.7290 339° North 275 316 9,100 1,200 Climbing FlightAware ADS-B
Fri 01:41:22 PM 40.0350 -104.7370 342° North 293 337 9,400 1,714 Climbing FlightAware ADS-B
Fri 01:41:35 PM 40.0522 -104.7450 340° North 293 337 9,900 2,727 Climbing FlightAware ADS-B
Fri 01:42:06 PM 40.0909 -104.7630 340° North 288 331 11,400 2,656 Climbing FlightAware ADS-B
Fri 01:42:36 PM 40.1290 -104.7800 341° North 292 336 12,600 1,810 Climbing FlightAware ADS-B
Fri 01:43:09 PM 40.1738 -104.8000 341° North 312 359 13,300 1,333 Climbing FlightAware ADS-B
Fri 01:43:39 PM 40.2181 -104.8200 341° North 346 398 14,000 1,899 Climbing FlightAware ADS-B
Fri 01:44:28 PM 40.2940 -104.8540 341° North 355 409 15,800 2,025 Climbing FlightAware ADS-B
Fri 01:44:59 PM 40.3426 -104.8760 341° North 366 421 16,700 2,200 Climbing FlightAware ADS-B
Fri 01:45:28 PM 40.3881 -104.8970 341° North 361 415 18,000 2,237 Climbing FlightAware ADS-B
Fri 01:45:58 PM 40.4361 -104.9190 341° North 369 425 18,900 1,742 Climbing FlightAware ADS-B
Fri 01:46:30 PM 40.4881 -104.9430 341° North 379 436 19,800 1,839 Climbing FlightAware ADS-B
Fri 01:47:00 PM 40.5384 -104.9660 341° North 381 438 20,800 2,000 Climbing FlightAware ADS-B
Fri 01:47:30 PM 40.5894 -104.9890 341° North 382 440 21,800 1,800 Climbing FlightAware ADS-B
Fri 01:47:40 PM 40.6066 -104.9960 343° North 386 444 22,000 1,364 Climbing FlightAware ADS-B
Fri 01:47:52 PM 40.6267 -104.9990 354° North 392 451 22,300 1,800 Climbing FlightAware ADS-B
Fri 01:48:00 PM 40.6409 -104.9990 360° North 392 451 22,600 1,105 Climbing FlightAware ADS-B
Fri 01:48:30 PM 40.6961 -104.9960 North 397 457 23,000 585 Climbing FlightAware ADS-B
Fri 01:48:41 PM 40.7168 -104.9940 North 399 459 23,000  Level FlightAware ADS-B
Fri 01:49:11 PM 40.7728 -104.9850 North 412 474 23,000 295 Level FlightAware ADS-B
Fri 01:49:42 PM 40.8332 -104.9740 North 425 489 23,300 857 Climbing FlightAware ADS-B
Fri 01:50:14 PM 40.8949 -104.9640 North 431 496 23,900 1,231 Climbing FlightAware ADS-B
Fri 01:50:21 PM 40.9084 -104.9620 North 430 495 24,100 1,091 Climbing FlightAware ADS-B
Fri 01:50:25 PM 40.9174 -104.9620 360° North 429 494 24,100 750 Level FlightAware ADS-B
Fri 01:50:29 PM 40.9243 -104.9630 354° North 427 491 24,200 1,091 Climbing FlightAware ADS-B
Fri 01:50:36 PM 40.9372 -104.9680 344° North 425 489 24,300 1,500 Climbing FlightAware ADS-B
Fri 01:50:41 PM 40.9472 -104.9740 336° Northwest 424 488 24,500 1,500 Climbing FlightAware ADS-B
Fri 01:50:44 PM 40.9530 -104.9780 332° Northwest 423 487 24,500 1,200 Level FlightAware ADS-B
Fri 01:50:51 PM 40.9634 -104.9890 321° Northwest 422 486 24,700 1,800 Climbing FlightAware ADS-B
Fri 01:50:54 PM 40.9674 -104.9950 311° West 421 484 24,800 1,500 Climbing FlightAware ADS-B
Fri 01:50:59 PM 40.9729 -105.0040 309° West 420 483 24,900 1,200 Climbing FlightAware ADS-B
Fri 01:51:04 PM 40.9782 -105.0150 303° West 421 484 25,000 1,263 Climbing FlightAware ADS-B
Fri 01:51:18 PM 40.9918 -105.0480 299° West 422 486 25,300 960 Climbing FlightAware ADS-B
Fri 01:51:54 PM 41.0289 -105.1260 302° West 425 489 25,800 1,026 Climbing FlightAware ADS-B
Fri 01:52:34 PM 41.0741 -105.2130 305° West 436 502 26,600 1,083 Climbing FlightAware ADS-B
Fri 01:53:06 PM 41.1050 -105.2890 298° West 443 510 27,100 1,014 Climbing FlightAware ADS-B
Fri 01:53:45 PM 41.1450 -105.3820 300° West 448 516 27,800 1,130 Climbing FlightAware ADS-B
Fri 01:54:15 PM 41.1740 -105.4520 299° West 448 516 28,400 1,099 Climbing FlightAware ADS-B
Fri 01:54:56 PM 41.2150 -105.5480 300° West 448 516 29,100 1,143 Climbing FlightAware ADS-B
Fri 01:55:39 PM 41.2600 -105.6540 299° West 449 517 30,000 1,084 Climbing FlightAware ADS-B
Fri 01:56:19 PM 41.3000 -105.7480 300° West 454 522 30,600 1,326 Climbing FlightAware ADS-B
Fri 01:57:05 PM 41.3470 -105.8610 299° West 435 501 31,900 977 Climbing FlightAware ADS-B
Fri 01:57:45 PM 41.3860 -105.9540 299° West 424 488 32,000 75 Climbing FlightAware ADS-B
Fri 01:58:25 PM 41.4220 -106.0410 299° West 424 488 32,000  Level FlightAware ADS-B
Fri 01:59:11 PM 41.4670 -106.1500 299° West 424 488 32,000  Level FlightAware ADS-B
Fri 01:59:51 PM 41.5040 -106.2400 299° West 424 488 32,000  Level FlightAware ADS-B
Fri 02:00:29 PM 41.5340 -106.3140 298° West 424 488 32,000  Level FlightAware ADS-B
Fri 02:01:10 PM 41.5660 -106.3950 298° West 424 488 32,000  Level FlightAware ADS-B
Fri 02:01:56 PM 41.6020 -106.4860 298° West 424 488 32,000  Level FlightAware ADS-B
Fri 02:02:56 PM 41.6490 -106.6040 298° West 424 488 32,000  Level FlightAware ADS-B
Fri 02:03:32 PM 41.6770 -106.6750 298° West 424 488 32,000  Level FlightAware ADS-B
Fri 02:04:20 PM 41.7150 -106.7690 298° West 424 488 32,000  Level FlightAware ADS-B
Fri 02:04:57 PM 41.7430 -106.8420 297° West 424 488 32,000  Level FlightAware ADS-B
Fri 02:05:34 PM 41.7720 -106.9150 298° West 424 488 32,000  Level FlightAware ADS-B
Fri 02:06:20 PM 41.8080 -107.0060 298° West 424 488 32,000 2,353 Level FlightAware ADS-B
Fri 02:07:16 PM 41.9120 -107.2470 300° West 417 480 36,000 2,667 Climbing FlightAware ADS-B
Fri 02:07:50 PM 41.9380 -107.3130 298° West 417 480 36,000  Level FlightAware ADS-B
Fri 02:08:37 PM 41.9740 -107.4050 298° West 417 480 36,000  Level FlightAware ADS-B
Fri 02:09:13 PM 42.0020 -107.4750 298° West 417 480 36,000  Level FlightAware ADS-B
Fri 02:09:52 PM 42.0320 -107.5510 298° West 417 480 36,000  Level FlightAware ADS-B
Fri 02:10:51 PM 42.0770 -107.6660 298° West 417 480 36,000  Level FlightAware ADS-B
Fri 02:11:26 PM 42.1040 -107.7340 298° West 417 480 36,000  Level FlightAware ADS-B
Fri 02:12:02 PM 42.1320 -107.8050 298° West 417 480 36,000  Level FlightAware ADS-B
Fri 02:12:49 PM 42.1680 -107.8970 298° West 417 480 36,000  Level FlightAware ADS-B
Fri 02:13:25 PM 42.1960 -107.9670 298° West 417 480 36,000  Level FlightAware ADS-B
Fri 02:14:11 PM 42.2310 -108.0570 298° West 417 480 36,000  Level FlightAware ADS-B
Fri 02:14:47 PM 42.2590 -108.1270 298° West 417 480 36,000  Level FlightAware ADS-B
Fri 02:15:35 PM 42.2960 -108.2210 298° West 417 480 36,000  Level FlightAware ADS-B
Fri 02:16:14 PM 42.3260 -108.2980 298° West 417 480 36,000  Level FlightAware ADS-B
Fri 02:16:51 PM 42.4292 -108.5758 298° West 421 484 36,000  Level Salt Lake Center
Fri 02:17:53 PM 42.4781 -108.7078 297° West 415 478 36,000  Level Salt Lake Center
Fri 02:18:55 PM 42.5372 -108.8633 297° West 416 479 36,000  Level Salt Lake Center
Fri 02:19:57 PM 42.5878 -108.9981 297° West 419 482 36,000  Level Salt Lake Center
Fri 02:20:59 PM 42.6450 -109.1536 297° West 416 479 36,000  Level Salt Lake Center
Fri 02:22:01 PM 42.6944 -109.2853 297° West 413 475 36,000  Level Salt Lake Center
Fri 02:23:03 PM 42.7500 -109.4375 296° West 405 466 36,000  Level Salt Lake Center
Fri 02:24:05 PM 42.7986 -109.5678 297° West 406 467 36,000  Level Salt Lake Center
Fri 02:25:07 PM 42.8475 -109.6992 297° West 407 468 36,000  Level Salt Lake Center
Fri 02:26:08 PM 42.9033 -109.8539 296° West 407 468 36,000  Level Salt Lake Center
Fri 02:27:10 PM 42.9569 -110.0014 296° West 403 464 36,000  Level Salt Lake Center
Fri 02:28:12 PM 43.0039 -110.1347 296° West 404 465 36,000  Level Salt Lake Center
Fri 02:29:14 PM 43.0606 -110.2892 297° West 406 467 36,000  Level Salt Lake Center
Fri 02:30:16 PM 43.1081 -110.4261 295° West 414 476 36,000  Level Salt Lake Center
Fri 02:31:18 PM 43.1561 -110.5597 296° West 410 472 36,000  Level Salt Lake Center
Fri 02:32:20 PM 43.2114 -110.7156 296° West 409 471 36,000  Level Salt Lake Center
Fri 02:33:22 PM 43.2608 -110.8528 296° West 416 479 36,000  Level Salt Lake Center
Fri 02:34:24 PM 43.3153 -111.0147 295° West 420 483 36,000  Level Salt Lake Center
Fri 02:35:26 PM 43.3647 -111.1542 296° West 424 488 36,000  Level Salt Lake Center
Fri 02:36:27 PM 43.4217 -111.3181 296° West 425 489 36,000  Level Salt Lake Center
Fri 02:37:29 PM 43.4697 -111.4578 295° West 423 487 36,000  Level Salt Lake Center
Fri 02:38:31 PM 43.5172 -111.5972 295° West 420 483 36,000  Level Salt Lake Center
Fri 02:43:51 PM 43.7867 -112.3960 295° West 413 475 36,000  Level FlightAware ADS-B
Fri 02:44:21 PM 43.8105 -112.4680 295° West 413 475 36,000  Level FlightAware ADS-B
Fri 02:44:53 PM 43.8355 -112.5440 295° West 412 474 36,000  Level FlightAware ADS-B
Fri 02:45:58 PM 43.8875 -112.7020 295° West 412 474 36,000  Level FlightAware ADS-B
Fri 02:47:14 PM 43.9466 -112.8830 294° West 412 474 36,000  Level FlightAware ADS-B
Fri 02:48:28 PM 44.0040 -113.0600 294° West 412 474 36,000  Level FlightAware ADS-B
Fri 02:48:49 PM 44.0175 -113.1031 294° West 413 475 36,000  Level Salt Lake Center
Fri 02:48:58 PM 44.0276 -113.1330 294° West 413 475 36,000  Level FlightAware ADS-B
Fri 02:49:51 PM 44.0625 -113.2433 294° West 414 476 36,000  Level Salt Lake Center
Fri 02:49:53 PM 44.0701 -113.2660 294° West 412 474 36,000  Level FlightAware ADS-B
Fri 02:54:00 PM 44.2528 -113.8547 294° West  Level FlightAware Approximate
Fri 02:55:24 PM 44.3290 -114.0740 294° West 417 480 36,000  Level FlightAware ADS-B
Fri 02:56:03 PM 44.3660 -114.1660 299° West 416 479 36,000  Level FlightAware ADS-B
Fri 02:56:39 PM 44.4000 -114.2520 299° West 415 478 36,000  Level FlightAware ADS-B
Fri 02:57:17 PM 44.4340 -114.3400 298° West 415 478 36,000  Level FlightAware ADS-B
Fri 02:58:05 PM 44.4780 -114.4530 299° West 413 475 36,000  Level FlightAware ADS-B
Fri 02:58:43 PM 44.5130 -114.5420 299° West 413 475 36,000  Level FlightAware ADS-B
Fri 02:59:27 PM 44.5530 -114.6460 298° West 413 475 36,000  Level FlightAware ADS-B
Fri 02:59:53 PM 44.5770 -114.7080 299° West 412 474 36,000  Level FlightAware ADS-B
Fri 03:01:07 PM 44.6440 -114.8810 299° West 416 479 36,000  Level FlightAware ADS-B
Fri 03:01:45 PM 44.6780 -114.9710 298° West 416 479 36,000  Level FlightAware ADS-B
Fri 03:02:27 PM 44.7160 -115.0720 298° West 416 479 36,000  Level FlightAware ADS-B
Fri 03:03:07 PM 44.7520 -115.1670 298° West 416 479 36,000  Level FlightAware ADS-B
Fri 03:03:47 PM 44.7890 -115.2630 299° West 419 482 36,000  Level FlightAware ADS-B
Fri 03:04:31 PM 44.8290 -115.3680 298° West 417 480 36,000  Level FlightAware ADS-B
Fri 03:05:15 PM 44.8690 -115.4740 298° West 416 479 36,000  Level FlightAware ADS-B
Fri 03:05:55 PM 44.9040 -115.5700 297° West 416 479 36,000  Level FlightAware ADS-B
Fri 03:06:36 PM 44.9400 -115.6660 298° West 418 481 36,000  Level FlightAware ADS-B
Fri 03:07:17 PM 44.9770 -115.7660 298° West 416 479 36,000  Level FlightAware ADS-B
Fri 03:07:55 PM 45.0110 -115.8580 298° West 415 478 36,000  Level FlightAware ADS-B
Fri 03:08:37 PM 45.0490 -115.9590 298° West 415 478 36,000  Level FlightAware ADS-B
Fri 03:09:15 PM 45.0820 -116.0490 297° West 417 480 36,000  Level FlightAware ADS-B
Fri 03:09:59 PM 45.1210 -116.1550 298° West 418 481 36,000  Level FlightAware ADS-B
Fri 03:10:27 PM 45.1460 -116.2240 297° West 422 486 36,000  Level FlightAware ADS-B
Fri 03:11:03 PM 45.1790 -116.3130 298° West 422 486 36,000  Level FlightAware ADS-B
Fri 03:11:51 PM 45.2220 -116.4320 297° West 419 482 36,000  Level FlightAware ADS-B
Fri 03:12:31 PM 45.2560 -116.5270 297° West 419 482 36,000  Level FlightAware ADS-B
Fri 03:13:07 PM 45.2880 -116.6170 297° West 419 482 36,000  Level FlightAware ADS-B
Fri 03:13:51 PM 45.3260 -116.7230 297° West 419 482 36,000  Level FlightAware ADS-B
Fri 03:14:29 PM 45.3600 -116.8160 298° West 417 480 36,000  Level FlightAware ADS-B
Fri 03:15:01 PM 45.3880 -116.8960 297° West 415 478 36,000  Level FlightAware ADS-B
Fri 03:16:37 PM 45.4710 -117.1300 297° West 416 479 36,000  Level FlightAware ADS-B
Fri 03:17:17 PM 45.5050 -117.2260 297° West 415 478 36,000  Level FlightAware ADS-B
Fri 03:18:01 PM 45.5430 -117.3350 296° West 415 478 36,000  Level FlightAware ADS-B
Fri 03:18:45 PM 45.5810 -117.4420 297° West 414 476 36,000  Level FlightAware ADS-B
Fri 03:19:25 PM 45.6140 -117.5370 296° West 411 473 36,000  Level FlightAware ADS-B
Fri 03:20:07 PM 45.6490 -117.6380 296° West 410 472 36,000  Level FlightAware ADS-B
Fri 03:20:49 PM 45.6830 -117.7380 296° West 407 468 36,000  Level FlightAware ADS-B
Fri 03:21:31 PM 45.7190 -117.8420 296° West 407 468 36,000  Level FlightAware ADS-B
Fri 03:22:13 PM 45.7540 -117.9440 296° West 407 468 36,000  Level FlightAware ADS-B
Fri 03:22:49 PM 45.7830 -118.0290 296° West 408 470 36,000  Level FlightAware ADS-B
Fri 03:23:39 PM 45.8240 -118.1500 296° West 411 473 36,000  Level FlightAware ADS-B
Fri 03:24:21 PM 45.8590 -118.2530 296° West 411 473 36,000  Level FlightAware ADS-B
Fri 03:25:03 PM 45.8940 -118.3560 296° West 411 473 36,000  Level FlightAware ADS-B
Fri 03:25:43 PM 45.9280 -118.4570 296° West 413 475 36,000  Level FlightAware ADS-B
Fri 03:26:25 PM 45.9600 -118.5540 295° West 413 475 36,000  Level FlightAware ADS-B
Fri 03:27:10 PM 46.0000 -118.6730 296° West 413 475 36,000  Level FlightAware ADS-B
Fri 03:27:49 PM 46.0310 -118.7670 295° West 413 475 36,000  Level FlightAware ADS-B
Fri 03:28:32 PM 46.0670 -118.8750 296° West 415 478 36,000  Level FlightAware ADS-B
Fri 03:29:16 PM 46.1040 -118.9860 296° West 417 480 36,000  Level FlightAware ADS-B
Fri 03:29:52 PM 46.1330 -119.0760 295° West 419 482 36,000  Level FlightAware ADS-B
Fri 03:30:34 PM 46.1570 -119.1470 296° West 420 483 36,000  Level FlightAware ADS-B
Fri 03:31:22 PM 46.2080 -119.3040 295° West 419 482 36,000  Level FlightAware ADS-B
Fri 03:32:06 PM 46.2440 -119.4160 295° West 418 481 36,000  Level FlightAware ADS-B
Fri 03:32:38 PM 46.2700 -119.4960 295° West 419 482 36,000  Level FlightAware ADS-B
Fri 03:33:21 PM 46.3040 -119.6030 295° West 420 483 36,000  Level FlightAware ADS-B
Fri 03:33:52 PM 46.3292 -119.6810 295° West 420 483 36,000  Level FlightAware ADS-B
Fri 03:34:26 PM 46.3581 -119.7710 295° West 421 484 36,000  Level FlightAware ADS-B
Fri 03:34:57 PM 46.3825 -119.8470 295° West 420 483 36,000  Level FlightAware ADS-B
Fri 03:35:27 PM 46.4073 -119.9260 295° West 417 480 36,000  Level FlightAware ADS-B
Fri 03:36:00 PM 46.4335 -120.0090 295° West 416 479 36,000  Level FlightAware ADS-B
Fri 03:36:50 PM 46.4730 -120.1350 295° West 413 475 36,000  Level FlightAware ADS-B
Fri 03:37:42 PM 46.5140 -120.2650 295° West 412 474 36,000  Level FlightAware ADS-B
Fri 03:37:52 PM 46.5224 -120.2910 295° West 412 474 36,000  Level FlightAware ADS-B
Fri 03:38:24 PM 46.5473 -120.3710 294° West 412 474 36,000  Level FlightAware ADS-B
Fri 03:38:49 PM 46.5673 -120.4330 295° West 413 475 36,000 -136 Level FlightAware ADS-B
Fri 03:39:08 PM 46.5863 -120.4780 302° West 417 480 35,900 -720 Descending FlightAware ADS-B
Fri 03:39:39 PM 46.6211 -120.5510 305° West 420 483 35,400 -1,355 Descending FlightAware ADS-B
Fri 03:40:10 PM 46.6544 -120.6210 305° West 415 478 34,500 -2,333 Descending FlightAware ADS-B
Fri 03:40:33 PM 46.6803 -120.6750 305° West 417 480 33,300 -3,057 Descending FlightAware ADS-B
Fri 03:41:03 PM 46.7134 -120.7450 305° West 417 480 31,800 -2,531 Descending FlightAware ADS-B
Fri 03:41:37 PM 46.7497 -120.8210 305° West 412 474 30,600 -2,156 Descending FlightAware ADS-B
Fri 03:42:07 PM 46.7819 -120.8890 305° West 404 465 29,500 -2,200 Descending FlightAware ADS-B
Fri 03:42:37 PM 46.8135 -120.9570 304° West 395 455 28,400 -2,164 Descending FlightAware ADS-B
Fri 03:43:08 PM 46.8451 -121.0230 305° West 388 447 27,300 -2,066 Descending FlightAware ADS-B
Fri 03:43:38 PM 46.8753 -121.0870 305° West 378 435 26,300 -2,100 Descending FlightAware ADS-B
Fri 03:44:08 PM 46.9045 -121.1500 304° West 371 427 25,200 -2,066 Descending FlightAware ADS-B
Fri 03:44:39 PM 46.9335 -121.2120 304° West 365 420 24,200 -1,935 Descending FlightAware ADS-B
Fri 03:45:10 PM 46.9624 -121.2750 304° West 357 411 23,200 -1,846 Descending FlightAware ADS-B
Fri 03:45:31 PM 46.9785 -121.3100 304° West 352 405 22,600 -1,800 Descending FlightAware ADS-B
Fri 03:45:40 PM 46.9869 -121.3280 304° West 351 404 22,300 -1,800 Descending FlightAware ADS-B
Fri 03:46:11 PM 47.0131 -121.3840 304° West 345 397 21,400 -1,770 Descending FlightAware ADS-B
Fri 03:46:41 PM 47.0397 -121.4410 304° West 339 390 20,500 -1,770 Descending FlightAware ADS-B
Fri 03:47:12 PM 47.0710 -121.5090 304° West 332 382 19,600 -1,574 Descending FlightAware ADS-B
Fri 03:47:42 PM 47.0967 -121.5650 304° West 328 377 18,900 -1,600 Descending FlightAware ADS-B
Fri 03:48:12 PM 47.1225 -121.6210 304° West 324 373 18,000 -1,770 Descending FlightAware ADS-B
Fri 03:48:43 PM 47.1480 -121.6760 304° West 324 373 17,100 -1,869 Descending FlightAware ADS-B
Fri 03:49:13 PM 47.1730 -121.7310 304° West 322 371 16,100 -1,900 Descending FlightAware ADS-B
Fri 03:49:43 PM 47.1979 -121.7850 304° West 320 368 15,200 -1,800 Descending FlightAware ADS-B
Fri 03:50:13 PM 47.2222 -121.8380 304° West 316 364 14,300 -1,900 Descending FlightAware ADS-B
Fri 03:50:43 PM 47.2466 -121.8920 304° West 315 362 13,300 -1,800 Descending FlightAware ADS-B
Fri 03:51:13 PM 47.2712 -121.9460 304° West 310 357 12,500 -1,680 Descending FlightAware ADS-B
Fri 03:51:33 PM 47.2871 -121.9800 305° West 310 357 11,900 -1,882 Descending FlightAware ADS-B
Fri 03:52:04 PM 47.3115 -122.0350 303° West 311 358 10,900 -1,672 Descending FlightAware ADS-B
Fri 03:52:34 PM 47.3352 -122.0870 304° West 302 348 10,200 -900 Descending FlightAware ADS-B
Fri 03:53:04 PM 47.3574 -122.1360 304° West 277 319 10,000 -409 Descending FlightAware ADS-B
Fri 03:53:18 PM 47.3667 -122.1570 303° West 270 311 9,900 -353 Descending FlightAware ADS-B
Fri 03:53:21 PM 47.3696 -122.1620 311° West 265 305 9,900  Level FlightAware ADS-B
Fri 03:53:26 PM 47.3729 -122.1680 309° West 260 299 9,900  Level FlightAware ADS-B
Fri 03:53:30 PM 47.3765 -122.1720 323° Northwest 255 293 9,900  Level FlightAware ADS-B
Fri 03:53:33 PM 47.3797 -122.1750 328° Northwest 253 291 9,900  Level FlightAware ADS-B
Fri 03:53:36 PM 47.3831 -122.1780 329° Northwest 248 285 9,900  Level FlightAware ADS-B
Fri 03:53:39 PM 47.3863 -122.1800 337° Northwest 246 283 9,900  Level FlightAware ADS-B
Fri 03:53:46 PM 47.3933 -122.1830 344° North 240 276 9,900  Level FlightAware ADS-B
Fri 03:53:49 PM 47.3971 -122.1830 360° North 237 273 9,900  Level FlightAware ADS-B
Fri 03:53:52 PM 47.4003 -122.1830 360° North 235 270 9,900 -632 Level FlightAware ADS-B
Fri 03:54:08 PM 47.4165 -122.1830 360° North 229 264 9,700 -900 Descending FlightAware ADS-B
Fri 03:54:12 PM 47.4215 -122.1830 360° North 230 265 9,600 -1,200 Descending FlightAware ADS-B
Fri 03:54:28 PM 47.4378 -122.1830 360° North 232 267 9,300 -1,355 Descending FlightAware ADS-B
Fri 03:54:43 PM 47.4541 -122.1830 360° North 233 268 8,900 -1,333 Descending FlightAware ADS-B
Fri 03:54:46 PM 47.4575 -122.1830 360° North 233 268 8,900 -750 Level FlightAware ADS-B
Fri 03:54:59 PM 47.4712 -122.1840 357° North 231 266 8,700 -1,071 Descending FlightAware ADS-B
Fri 03:55:14 PM 47.4875 -122.1840 360° North 230 265 8,400 -1,200 Descending FlightAware ADS-B
Fri 03:55:29 PM 47.5034 -122.1850 358° North 229 264 8,100 -1,200 Descending FlightAware ADS-B
Fri 03:55:44 PM 47.5199 -122.1860 358° North 230 265 7,800 -1,333 Descending FlightAware ADS-B
Fri 03:55:56 PM 47.5326 -122.1860 360° North 229 264 7,500 -1,000 Descending FlightAware ADS-B
Fri 03:56:08 PM 47.5446 -122.1870 357° North 227 261 7,400 -889 Descending FlightAware ADS-B
Fri 03:56:23 PM 47.5606 -122.1870 360° North 227 261 7,100 -1,161 Descending FlightAware ADS-B
Fri 03:56:39 PM 47.5767 -122.1880 358° North 224 258 6,800 -923 Descending FlightAware ADS-B
Fri 03:56:49 PM 47.5857 -122.1880 360° North 222 255 6,700 -667 Descending FlightAware ADS-B
Fri 03:57:06 PM 47.5966 -122.1890 356° North 220 253 6,500 -643 Descending FlightAware ADS-B
Fri 03:57:17 PM 47.6087 -122.1890 360° North 217 250 6,400 -750 Descending FlightAware ADS-B
Fri 03:57:30 PM 47.6230 -122.1900 357° North 213 245 6,200 -1,286 Descending FlightAware ADS-B
Fri 03:57:45 PM 47.6431 -122.1910 358° North 212 244 5,800 -1,400 Descending FlightAware ADS-B
Fri 03:58:00 PM 47.6577 -122.1910 360° North 211 243 5,500 -960 Descending FlightAware ADS-B
Fri 03:58:10 PM 47.6675 -122.1910 360° North 210 242 5,400 -1,043 Descending FlightAware ADS-B
Fri 03:58:23 PM 47.6802 -122.1910 360° North 212 244 5,100 -1,034 Descending FlightAware ADS-B
Fri 03:58:39 PM 47.6958 -122.1920 358° North 215 247 4,900 -480 Descending FlightAware ADS-B
Fri 03:58:48 PM 47.7054 -122.1920 360° North 217 250 4,900  Level FlightAware ADS-B
Fri 03:58:52 PM 47.7090 -122.1930 349° North 216 249 4,900  Level FlightAware ADS-B
Fri 03:58:55 PM 47.7125 -122.1940 349° North 217 250 4,900  Level FlightAware ADS-B
Fri 03:59:00 PM 47.7166 -122.1970 334° Northwest 218 251 4,900  Level FlightAware ADS-B
Fri 03:59:04 PM 47.7198 -122.2000 328° Northwest 219 252 4,900  Level FlightAware ADS-B
Fri 03:59:07 PM 47.7222 -122.2030 320° Northwest 219 252 4,900  Level FlightAware ADS-B
Fri 03:59:10 PM 47.7244 -122.2060 317° Northwest 219 252 4,900  Level FlightAware ADS-B
Fri 03:59:13 PM 47.7267 -122.2110 304° West 220 253 4,900  Level FlightAware ADS-B
Fri 03:59:17 PM 47.7282 -122.2150 299° West 219 252 4,900  Level FlightAware ADS-B
Fri 03:59:20 PM 47.7296 -122.2200 293° West 219 252 4,900  Level FlightAware ADS-B
Fri 03:59:25 PM 47.7310 -122.2260 289° West 219 252 4,900  Level FlightAware ADS-B
Fri 03:59:31 PM 47.7330 -122.2350 288° West 217 250 4,900  Level FlightAware ADS-B
Fri 03:59:46 PM 47.7371 -122.2570 285° West 217 250 4,900  Level FlightAware ADS-B
Fri 04:00:01 PM 47.7410 -122.2790 285° West 219 252 4,900  Level FlightAware ADS-B
Fri 04:00:17 PM 47.7448 -122.3010 284° West 205 236 4,900  Level FlightAware ADS-B
Fri 04:00:27 PM 47.7469 -122.3130 285° West 194 223 4,900  Level FlightAware ADS-B
Fri 04:00:33 PM 47.7483 -122.3220 283° West 192 221 4,900  Level FlightAware ADS-B
Fri 04:00:36 PM 47.7487 -122.3260 278° West 192 221 4,900  Level FlightAware ADS-B
Fri 04:00:40 PM 47.7488 -122.3300 272° West 193 222 4,900  Level FlightAware ADS-B
Fri 04:00:43 PM 47.7485 -122.3340 264° West 195 224 4,900  Level FlightAware ADS-B
Fri 04:00:47 PM 47.7476 -122.3390 255° West 196 226 4,900  Level FlightAware ADS-B
Fri 04:00:50 PM 47.7462 -122.3430 243° Southwest 198 228 4,900  Level FlightAware ADS-B
Fri 04:00:54 PM 47.7444 -122.3470 236° Southwest 199 229 4,900  Level FlightAware ADS-B
Fri 04:00:58 PM 47.7415 -122.3520 229° Southwest 199 229 4,900  Level FlightAware ADS-B
Fri 04:01:01 PM 47.7393 -122.3550 223° Southwest 200 230 4,900  Level FlightAware ADS-B
Fri 04:01:12 PM 47.7299 -122.3600 200° South 205 236 4,900  Level FlightAware ADS-B
Fri 04:01:16 PM 47.7264 -122.3610 191° South 206 237 4,900  Level FlightAware ADS-B
Fri 04:01:20 PM 47.7222 -122.3610 180° South 207 238 4,900  Level FlightAware ADS-B
Fri 04:01:23 PM 47.7193 -122.3600 167° South 209 241 4,900  Level FlightAware ADS-B
Fri 04:01:26 PM 47.7165 -122.3590 166° South 205 236 4,900 -857 Level FlightAware ADS-B
Fri 04:01:30 PM 47.7134 -122.3570 157° South 204 235 4,800 -1,714 Descending FlightAware ADS-B
Fri 04:01:33 PM 47.7103 -122.3540 147° Southeast 205 236 4,700 -1,200 Descending FlightAware ADS-B
Fri 04:01:45 PM 47.7009 -122.3460 150° Southeast 207 238 4,500 -1,111 Descending FlightAware ADS-B
Fri 04:02:00 PM 47.6887 -122.3340 146° Southeast 207 238 4,200 -828 Descending FlightAware ADS-B
Fri 04:02:14 PM 47.6781 -122.3240 148° Southeast 195 224 4,100 -621 Descending FlightAware ADS-B
Fri 04:02:29 PM 47.6663 -122.3130 148° Southeast 199 229 3,900 -600 Descending FlightAware ADS-B
Fri 04:02:34 PM 47.6623 -122.3110 161° South 200 230 3,900  Level FlightAware ADS-B
Fri 04:02:38 PM 47.6588 -122.3090 159° South 197 227 3,900  Level FlightAware ADS-B
Fri 04:02:42 PM 47.6553 -122.3090 180° South 192 221 3,900 429 Level FlightAware ADS-B
Fri 04:02:52 PM 47.6468 -122.3070 171° South 185 213 4,000  Climbing FlightAware ADS-B
Fri 04:02:57 PM 47.6427 -122.3070 180° South 181 208 3,900 -1,286 Descending FlightAware ADS-B
Fri 04:03:06 PM 47.6345 -122.3060 175° South 183 211 3,700 -1,059 Descending FlightAware ADS-B
Fri 04:03:14 PM 47.6283 -122.3060 180° South 189 217 3,600 -857 Descending FlightAware ADS-B
Fri 04:03:27 PM 47.6168 -122.3060 180° South 192 221 3,400 -1,071 Descending FlightAware ADS-B
Fri 04:03:42 PM 47.6034 -122.3060 180° South 191 220 3,100 -1,111 Descending FlightAware ADS-B
Fri 04:03:54 PM 47.5923 -122.3070 183° South 190 219 2,900 -1,043 Descending FlightAware ADS-B
Fri 04:04:05 PM 47.5826 -122.3070 180° South 189 217 2,700 -947 Descending FlightAware ADS-B
Fri 04:04:13 PM 47.5757 -122.3070 180° South 187 215 2,600 -800 Descending FlightAware ADS-B
Fri 04:04:20 PM 47.5696 -122.3070 180° South 186 214 2,500 -1,091 Descending FlightAware ADS-B
Fri 04:04:35 PM 47.5573 -122.3070 180° South 184 212 2,200 -923 Descending FlightAware ADS-B
Fri 04:04:46 PM 47.5477 -122.3070 180° South 179 206 2,100 -923 Descending FlightAware ADS-B
Fri 04:05:01 PM 47.5351 -122.3070 180° South 177 204 1,800 -1,000 Descending FlightAware ADS-B
Fri 04:05:10 PM 47.5279 -122.3070 180° South 172 198 1,700 -750 Descending FlightAware ADS-B
Fri 04:05:17 PM 47.5225 -122.3070 180° South 165 190 1,600 -900 Descending FlightAware ADS-B
Fri 04:05:30 PM 47.5134 -122.3070 180° South 157 181 1,400 -1,043 Descending FlightAware ADS-B
Fri 04:05:40 PM 47.5059 -122.3070 180° South 153 176 1,200 -1,000 Descending FlightAware ADS-B
Fri 04:05:48 PM 47.5006 -122.3070 180° South 152 175 1,100 -706 Descending FlightAware ADS-B
Fri 04:05:57 PM 47.4944 -122.3070 180° South 150 173 1,000 -960 Descending FlightAware ADS-B
Fri 04:06:13 PM 47.4827 -122.3080 183° South 151 174 700 -894 Descending FlightAware ADS-B
Fri 04:06:44 PM 47.4630 -122.3080 180° South 152 175 300 -407 Descending FlightAware ADS-B
Fri 04:07:12 PM 47.4460 -122.3080 180° South 152 175 300  Level FlightAware ADS-B

Login

Don't have an account? Register now (free) for customized features, flight alerts, and more!